createdAt,value
2017-06-03T00:00:03.103Z,38.49
2017-06-03T00:00:43.700Z,38.39
2017-06-03T00:01:24.330Z,38.29
2017-06-03T00:02:04.937Z,38.29
2017-06-03T00:02:45.559Z,38.29
2017-06-03T00:03:26.169Z,38.59
2017-06-03T00:04:06.767Z,38.29
2017-06-03T00:04:47.379Z,38.59
2017-06-03T00:05:27.978Z,38.68
2017-06-03T00:06:08.581Z,38.87
2017-06-03T00:06:49.172Z,38.29
2017-06-03T00:07:29.755Z,38.39
2017-06-03T00:08:10.363Z,38.39
2017-06-03T00:08:50.957Z,38.49
2017-06-03T00:09:31.543Z,38.59
2017-06-03T00:10:12.184Z,38.68
2017-06-03T00:10:52.791Z,38.87
2017-06-03T00:11:33.394Z,38.87
2017-06-03T00:12:14.045Z,39.06
2017-06-03T00:12:54.632Z,38.87
2017-06-03T00:13:35.223Z,39.26
2017-06-03T00:14:15.844Z,38.96
2017-06-03T00:14:56.434Z,38.96
2017-06-03T00:15:37.058Z,38.78
2017-06-03T00:16:17.653Z,39.16
2017-06-03T00:16:58.248Z,38.87
2017-06-03T00:17:38.838Z,38.96
2017-06-03T00:18:19.430Z,38.96
2017-06-03T00:19:00.031Z,38.87
2017-06-03T00:19:40.634Z,38.96
2017-06-03T00:20:21.224Z,39.16
2017-06-03T00:21:01.824Z,39.35
2017-06-03T00:21:42.422Z,39.16
2017-06-03T00:22:23.012Z,38.87
2017-06-03T00:23:03.594Z,38.96
2017-06-03T00:23:44.207Z,39.35
2017-06-03T00:24:24.830Z,39.33
2017-06-03T00:25:05.428Z,39.23
2017-06-03T00:25:46.069Z,39.53
2017-06-03T00:26:26.645Z,39.43
2017-06-03T00:27:07.243Z,39.53
2017-06-03T00:27:48.817Z,39.62
2017-06-03T00:28:29.414Z,39.81
2017-06-03T00:29:10.007Z,39.72
2017-06-03T00:29:50.587Z,39.72
2017-06-03T00:30:31.179Z,40.1
2017-06-03T00:31:11.796Z,40
2017-06-03T00:31:52.389Z,39.72
2017-06-03T00:32:33.062Z,40.2
2017-06-03T00:33:13.645Z,39.91
2017-06-03T00:33:54.246Z,40
2017-06-03T00:34:34.837Z,40.2
2017-06-03T00:35:15.430Z,40.29
2017-06-03T00:35:56.000Z,39.62
2017-06-03T00:36:36.596Z,40.2
2017-06-03T00:37:17.193Z,40.29
2017-06-03T00:37:57.784Z,39.91
2017-06-03T00:38:38.406Z,40.67
2017-06-03T00:39:18.980Z,40.58
2017-06-03T00:39:59.574Z,40.39
2017-06-03T00:40:40.173Z,40.39
2017-06-03T00:41:20.759Z,40.58
2017-06-03T00:42:01.353Z,40.58
2017-06-03T00:42:41.963Z,40.58
2017-06-03T00:43:22.547Z,40.77
2017-06-03T00:44:03.137Z,40.67
2017-06-03T00:44:43.719Z,40.67
2017-06-03T00:45:24.313Z,40.66
2017-06-03T00:46:04.910Z,40.66
2017-06-03T00:46:45.498Z,40.48
2017-06-03T00:47:26.112Z,40.58
2017-06-03T00:48:06.696Z,40.94
2017-06-03T00:48:47.284Z,41.04
2017-06-03T00:49:27.864Z,41.16
2017-06-03T00:50:08.465Z,40.75
2017-06-03T00:50:49.034Z,41.13
2017-06-03T00:51:29.622Z,40.56
2017-06-03T00:52:10.267Z,40.75
2017-06-03T00:52:50.856Z,40.84
2017-06-03T00:53:31.475Z,40.75
2017-06-03T00:54:12.090Z,40.75
2017-06-03T00:54:52.671Z,40.75
2017-06-03T00:55:33.277Z,40.94
2017-06-03T00:56:13.899Z,40.66
2017-06-03T00:56:54.497Z,40.84
2017-06-03T00:57:35.092Z,40.94
2017-06-03T00:58:15.679Z,41.13
2017-06-03T00:58:56.270Z,41.33
2017-06-03T00:59:36.868Z,41.52
2017-06-03T01:00:17.459Z,41.23
2017-06-03T01:00:58.106Z,41.61
2017-06-03T01:01:38.707Z,41.71
2017-06-03T01:02:19.293Z,41.8
2017-06-03T01:02:59.879Z,41.9
2017-06-03T01:03:40.497Z,41.8
2017-06-03T01:04:21.169Z,41.8
2017-06-03T01:05:01.829Z,41.8
2017-06-03T01:05:42.410Z,41.8
2017-06-03T01:06:22.991Z,41.9
2017-06-03T01:07:03.569Z,41.8
2017-06-03T01:07:44.191Z,41.71
2017-06-03T01:08:24.798Z,41.71
2017-06-03T01:09:05.440Z,41.8
2017-06-03T01:09:46.048Z,42.29
2017-06-03T01:10:26.678Z,42.29
2017-06-03T01:11:07.277Z,41.52
2017-06-03T01:11:47.863Z,41.61
2017-06-03T01:12:28.456Z,41.42
2017-06-03T01:13:09.050Z,41.71
2017-06-03T01:13:49.718Z,42.19
2017-06-03T01:14:30.311Z,42.1
2017-06-03T01:15:10.900Z,42.1
2017-06-03T01:15:51.475Z,42.29
2017-06-03T01:16:32.059Z,42.47
2017-06-03T01:17:12.687Z,42.19
2017-06-03T01:17:53.283Z,42.19
2017-06-03T01:18:33.876Z,42.38
2017-06-03T01:19:14.479Z,42.47
2017-06-03T01:19:55.078Z,42.29
2017-06-03T01:20:35.666Z,42.1
2017-06-03T01:21:16.256Z,42.29
2017-06-03T01:21:56.830Z,42.29
2017-06-03T01:22:37.422Z,42.47
2017-06-03T01:23:18.013Z,42.19
2017-06-03T01:23:58.615Z,42.47
2017-06-03T01:24:39.212Z,42.67
2017-06-03T01:25:19.809Z,42.67
2017-06-03T01:26:00.401Z,42.67
2017-06-03T01:26:41.065Z,42.57
2017-06-03T01:27:21.690Z,42.57
2017-06-03T01:28:02.276Z,42.57
2017-06-03T01:28:42.910Z,42.57
2017-06-03T01:29:23.501Z,43.15
2017-06-03T01:30:04.103Z,43.24
2017-06-03T01:30:44.709Z,43.05
2017-06-03T01:31:25.306Z,42.77
2017-06-03T01:32:05.902Z,43.15
2017-06-03T01:32:46.535Z,43.05
2017-06-03T01:33:27.124Z,43.34
2017-06-03T01:34:07.703Z,43.24
2017-06-03T01:34:48.296Z,43.15
2017-06-03T01:35:28.902Z,43.24
2017-06-03T01:36:09.503Z,43.34
2017-06-03T01:36:50.072Z,43.53
2017-06-03T01:37:30.663Z,43.34
2017-06-03T01:38:11.250Z,43.34
2017-06-03T01:38:51.896Z,43.15
2017-06-03T01:39:32.505Z,43.15
2017-06-03T01:40:13.133Z,43.34
2017-06-03T01:40:53.766Z,43.53
2017-06-03T01:41:34.356Z,43.82
2017-06-03T01:42:14.951Z,43.73
2017-06-03T01:42:55.589Z,44.11
2017-06-03T01:43:36.196Z,43.91
2017-06-03T01:44:16.794Z,43.82
2017-06-03T01:44:57.382Z,43.82
2017-06-03T01:45:38.003Z,44.01
2017-06-03T01:46:18.615Z,43.91
2017-06-03T01:46:59.211Z,43.8
2017-06-03T01:47:39.816Z,43.8
2017-06-03T01:48:20.428Z,43.99
2017-06-03T01:49:01.018Z,43.8
2017-06-03T01:49:41.624Z,43.99
2017-06-03T01:50:22.201Z,43.8
2017-06-03T01:51:02.791Z,44.18
2017-06-03T01:51:43.395Z,44.47
2017-06-03T01:52:23.985Z,44.37
2017-06-03T01:53:04.600Z,44.37
2017-06-03T01:53:45.220Z,44.37
2017-06-03T01:54:25.819Z,44.66
2017-06-03T01:55:06.438Z,44.85
2017-06-03T01:55:47.048Z,45.14
2017-06-03T01:56:27.650Z,44.85
2017-06-03T01:57:08.237Z,44.76
2017-06-03T01:57:48.833Z,45.04
2017-06-03T01:58:29.421Z,45.23
2017-06-03T01:59:09.996Z,45.72
2017-06-03T01:59:50.597Z,45.23
2017-06-03T02:00:31.192Z,44.76
2017-06-03T02:01:11.849Z,45.14
2017-06-03T02:01:52.434Z,45.33
2017-06-03T02:02:33.027Z,45.43
2017-06-03T02:03:13.620Z,45.33
2017-06-03T02:03:54.195Z,45.33
2017-06-03T02:04:34.813Z,45.81
2017-06-03T02:05:15.405Z,45.33
2017-06-03T02:05:55.994Z,45.14
2017-06-03T02:06:36.634Z,45.72
2017-06-03T02:07:17.225Z,45.62
2017-06-03T02:07:57.832Z,45.62
2017-06-03T02:08:38.425Z,45.52
2017-06-03T02:09:19.045Z,46
2017-06-03T02:09:59.688Z,45.81
2017-06-03T02:10:40.276Z,45.72
2017-06-03T02:11:20.872Z,45.62
2017-06-03T02:12:01.484Z,45.72
2017-06-03T02:12:42.087Z,45.9
2017-06-03T02:13:22.696Z,46.29
2017-06-03T02:14:03.276Z,46.48
2017-06-03T02:14:43.869Z,46.48
2017-06-03T02:15:24.456Z,46.29
2017-06-03T02:16:05.072Z,46.39
2017-06-03T02:16:45.659Z,46.29
2017-06-03T02:17:26.239Z,46.36
2017-06-03T02:18:06.852Z,46.39
2017-06-03T02:18:47.448Z,46.86
2017-06-03T02:19:28.052Z,46.39
2017-06-03T02:20:08.643Z,46.67
2017-06-03T02:20:49.258Z,46.46
2017-06-03T02:21:29.856Z,46.55
2017-06-03T02:22:10.457Z,46.75
2017-06-03T02:22:51.060Z,46.75
2017-06-03T02:23:31.643Z,46.84
2017-06-03T02:24:12.261Z,46.86
2017-06-03T02:24:52.852Z,47.03
2017-06-03T02:25:33.471Z,46.86
2017-06-03T02:26:14.066Z,46.94
2017-06-03T02:26:54.652Z,46.84
2017-06-03T02:27:35.243Z,46.65
2017-06-03T02:28:15.844Z,46.84
2017-06-03T02:28:56.425Z,46.94
2017-06-03T02:29:37.011Z,47.03
2017-06-03T02:30:17.615Z,46.94
2017-06-03T02:30:58.206Z,46.94
2017-06-03T02:31:38.794Z,47.03
2017-06-03T02:32:19.396Z,47.13
2017-06-03T02:33:00.012Z,47.61
2017-06-03T02:33:40.602Z,47.61
2017-06-03T02:34:21.188Z,47.71
2017-06-03T02:35:01.790Z,47.42
2017-06-03T02:35:42.391Z,47.71
2017-06-03T02:36:22.978Z,47.61
2017-06-03T02:37:03.563Z,47.51
2017-06-03T02:37:44.142Z,47.22
2017-06-03T02:38:24.743Z,47.8
2017-06-03T02:39:05.329Z,48.18
2017-06-03T02:39:45.921Z,47.99
2017-06-03T02:40:26.495Z,47.99
2017-06-03T02:41:07.086Z,47.99
2017-06-03T02:41:47.670Z,47.99
2017-06-03T02:42:28.259Z,48.38
2017-06-03T02:43:08.845Z,48.85
2017-06-03T02:43:49.432Z,48.85
2017-06-03T02:44:30.068Z,48.66
2017-06-03T02:45:10.664Z,48.95
2017-06-03T02:45:51.259Z,48.95
2017-06-03T02:46:31.867Z,48.66
2017-06-03T02:47:12.518Z,48.75
2017-06-03T02:47:53.109Z,48.95
2017-06-03T02:48:33.704Z,48.66
2017-06-03T02:49:14.277Z,48.85
2017-06-03T02:49:54.862Z,48.95
2017-06-03T02:50:35.453Z,48.95
2017-06-03T02:51:16.040Z,48.95
2017-06-03T02:51:56.711Z,48.95
2017-06-03T02:52:37.304Z,48.85
2017-06-03T02:53:17.918Z,48.57
2017-06-03T02:53:58.523Z,48.66
2017-06-03T02:54:39.150Z,48.57
2017-06-03T02:55:19.744Z,48.09
2017-06-03T02:56:00.340Z,48.18
2017-06-03T02:56:40.947Z,48.47
2017-06-03T02:57:21.541Z,48.85
2017-06-03T02:58:02.160Z,48.75
2017-06-03T02:58:42.745Z,48.85
2017-06-03T02:59:23.319Z,48.66
2017-06-03T03:00:03.937Z,49.05
2017-06-03T03:00:44.532Z,48.85
2017-06-03T03:01:25.118Z,48.57
2017-06-03T03:02:05.718Z,48.85
2017-06-03T03:02:46.298Z,48.75
2017-06-03T03:03:26.891Z,48.85
2017-06-03T03:04:07.519Z,48.38
2017-06-03T03:04:48.115Z,48.75
2017-06-03T03:05:28.744Z,48.57
2017-06-03T03:06:09.338Z,48.38
2017-06-03T03:06:49.923Z,48.75
2017-06-03T03:07:30.506Z,48.95
2017-06-03T03:08:11.114Z,48.66
2017-06-03T03:08:51.708Z,49.14
2017-06-03T03:09:32.298Z,49.14
2017-06-03T03:10:12.943Z,48.95
2017-06-03T03:10:53.526Z,48.95
2017-06-03T03:11:34.103Z,48.85
2017-06-03T03:12:14.701Z,48.95
2017-06-03T03:12:55.290Z,48.95
2017-06-03T03:13:35.876Z,48.85
2017-06-03T03:14:16.490Z,49.05
2017-06-03T03:14:57.107Z,48.75
2017-06-03T03:15:37.684Z,48.47
2017-06-03T03:16:18.297Z,48.66
2017-06-03T03:16:58.885Z,48.75
2017-06-03T03:17:39.464Z,49.33
2017-06-03T03:18:20.064Z,49.24
2017-06-03T03:19:00.655Z,49.33
2017-06-03T03:19:41.287Z,49.71
2017-06-03T03:20:21.879Z,49.24
2017-06-03T03:21:02.568Z,49.14
2017-06-03T03:21:43.184Z,49.24
2017-06-03T03:22:23.778Z,49.43
2017-06-03T03:23:04.368Z,49.24
2017-06-03T03:23:44.957Z,49.43
2017-06-03T03:24:25.543Z,49.43
2017-06-03T03:25:06.173Z,49.33
2017-06-03T03:25:46.853Z,49.5
2017-06-03T03:26:27.454Z,49.52
2017-06-03T03:27:08.034Z,49.31
2017-06-03T03:27:48.636Z,49.98
2017-06-03T03:28:29.215Z,49.4
2017-06-03T03:29:09.820Z,49.98
2017-06-03T03:29:50.402Z,50.36
2017-06-03T03:30:31.001Z,49.88
2017-06-03T03:31:11.685Z,50.26
2017-06-03T03:31:52.278Z,50.36
2017-06-03T03:32:32.882Z,50.36
2017-06-03T03:33:13.481Z,50.26
2017-06-03T03:33:54.080Z,50.26
2017-06-03T03:34:34.667Z,50.17
2017-06-03T03:35:15.271Z,50.07
2017-06-03T03:35:55.888Z,50.26
2017-06-03T03:36:36.477Z,50.46
2017-06-03T03:37:17.090Z,50.46
2017-06-03T03:37:57.695Z,50.07
2017-06-03T03:38:38.293Z,50.46
2017-06-03T03:39:18.886Z,50.17
2017-06-03T03:39:59.485Z,50.46
2017-06-03T03:40:40.083Z,50.26
2017-06-03T03:41:20.689Z,50.65
2017-06-03T03:42:01.289Z,50.65
2017-06-03T03:42:41.885Z,50.46
2017-06-03T03:43:22.521Z,50.65
2017-06-03T03:44:03.074Z,51.13
2017-06-03T03:44:43.655Z,50.87
2017-06-03T03:45:24.252Z,50.56
2017-06-03T03:46:04.835Z,50.46
2017-06-03T03:46:45.438Z,50.48
2017-06-03T03:47:26.018Z,50.26
2017-06-03T03:48:06.612Z,50.38
2017-06-03T03:48:47.202Z,50.77
2017-06-03T03:49:27.817Z,50.67
2017-06-03T03:50:08.456Z,50.58
2017-06-03T03:50:49.061Z,50.29
2017-06-03T03:51:29.658Z,50.48
2017-06-03T03:52:10.244Z,50.48
2017-06-03T03:52:50.888Z,50
2017-06-03T03:53:31.468Z,50.29
2017-06-03T03:54:12.102Z,50.1
2017-06-03T03:54:52.698Z,50.2
2017-06-03T03:55:33.284Z,50.46
2017-06-03T03:56:13.902Z,50.48
2017-06-03T03:56:54.492Z,50.29
2017-06-03T03:57:35.092Z,50.2
2017-06-03T03:58:15.690Z,50.36
2017-06-03T03:58:56.314Z,50.29
2017-06-03T03:59:36.899Z,50.26
2017-06-03T04:00:17.488Z,50.65
2017-06-03T04:00:58.066Z,50.74
2017-06-03T04:01:38.652Z,50.26
2017-06-03T04:02:19.245Z,50.65
2017-06-03T04:02:59.831Z,50.74
2017-06-03T04:03:40.451Z,50.65
2017-06-03T04:04:21.043Z,50.46
2017-06-03T04:05:01.626Z,50.58
2017-06-03T04:05:42.229Z,50.67
2017-06-03T04:06:22.878Z,50.58
2017-06-03T04:07:03.493Z,50.67
2017-06-03T04:07:44.089Z,50.67
2017-06-03T04:08:24.674Z,50.48
2017-06-03T04:09:05.293Z,50.67
2017-06-03T04:09:45.879Z,50.48
2017-06-03T04:10:26.462Z,50.26
2017-06-03T04:11:07.043Z,50.29
2017-06-03T04:11:47.637Z,50.48
2017-06-03T04:12:28.226Z,50.29
2017-06-03T04:13:08.823Z,50.48
2017-06-03T04:13:49.440Z,50.58
2017-06-03T04:14:30.026Z,50.77
2017-06-03T04:15:10.613Z,50.29
2017-06-03T04:15:51.204Z,50.38
2017-06-03T04:16:31.798Z,50.67
2017-06-03T04:17:12.388Z,50.48
2017-06-03T04:17:52.976Z,50.36
2017-06-03T04:18:33.570Z,50.65
2017-06-03T04:19:14.157Z,50.93
2017-06-03T04:19:54.775Z,51.54
2017-06-03T04:20:35.350Z,51.22
2017-06-03T04:21:15.946Z,51.25
2017-06-03T04:21:56.542Z,51.03
2017-06-03T04:22:37.114Z,51.51
2017-06-03T04:23:17.722Z,50.84
2017-06-03T04:23:58.334Z,50.93
2017-06-03T04:24:38.915Z,51.44
2017-06-03T04:25:19.507Z,51.32
2017-06-03T04:26:00.094Z,51.22
2017-06-03T04:26:40.741Z,50.93
2017-06-03T04:27:21.335Z,52.11
2017-06-03T04:28:01.935Z,53.16
2017-06-03T04:28:42.518Z,53.07
2017-06-03T04:29:23.142Z,53.16
2017-06-03T04:30:03.732Z,52.4
2017-06-03T04:30:44.332Z,50.96
2017-06-03T04:31:24.918Z,50.48
2017-06-03T04:32:05.530Z,50.96
2017-06-03T04:32:46.138Z,50.38
2017-06-03T04:33:26.734Z,50.2
2017-06-03T04:34:07.331Z,49.81
2017-06-03T04:34:48.097Z,50.29
2017-06-03T04:35:28.689Z,50.38
2017-06-03T04:36:09.286Z,50
2017-06-03T04:36:49.872Z,50.1
2017-06-03T04:37:30.488Z,50.48
2017-06-03T04:38:11.077Z,50.2
2017-06-03T04:38:51.653Z,50.29
2017-06-03T04:39:32.256Z,50.41
2017-06-03T04:40:12.863Z,50.48
2017-06-03T04:40:53.553Z,50.48
2017-06-03T04:41:34.151Z,50.38
2017-06-03T04:42:14.741Z,50.12
2017-06-03T04:42:55.324Z,50.1
2017-06-03T04:43:35.908Z,50.2
2017-06-03T04:44:16.499Z,50.2
2017-06-03T04:44:57.108Z,50.2
2017-06-03T04:45:37.712Z,50.48
2017-06-03T04:46:18.350Z,50.7
2017-06-03T04:46:58.937Z,50.77
2017-06-03T04:47:39.528Z,50.48
2017-06-03T04:48:20.122Z,50.1
2017-06-03T04:49:00.724Z,50.67
2017-06-03T04:49:41.346Z,51.06
2017-06-03T04:50:21.946Z,50.48
2017-06-03T04:51:02.547Z,50.48
2017-06-03T04:51:43.185Z,49.91
2017-06-03T04:52:23.806Z,50.2
2017-06-03T04:53:04.999Z,49.81
2017-06-03T04:53:45.603Z,49.65
2017-06-03T04:54:26.189Z,50.12
2017-06-03T04:55:06.782Z,50.38
2017-06-03T04:55:47.364Z,50.29
2017-06-03T04:56:27.959Z,50.2
2017-06-03T04:57:09.737Z,50.48
2017-06-03T04:57:50.627Z,50.58
2017-06-03T04:58:35.666Z,50.2
2017-06-03T04:59:15.887Z,50.32
2017-06-03T04:59:56.492Z,50.12
2017-06-03T05:00:37.153Z,50.29
2017-06-03T05:01:17.745Z,50.38
2017-06-03T05:01:58.346Z,50.41
2017-06-03T05:02:38.966Z,50.41
2017-06-03T05:03:19.558Z,50.22
2017-06-03T05:04:00.156Z,50.12
2017-06-03T05:04:40.745Z,50.12
2017-06-03T05:05:21.335Z,49.93
2017-06-03T05:06:01.927Z,50.03
2017-06-03T05:06:42.510Z,50.03
2017-06-03T05:07:23.121Z,50.32
2017-06-03T05:08:03.692Z,50.03
2017-06-03T05:08:44.363Z,50.6
2017-06-03T05:09:26.284Z,50.22
2017-06-03T05:10:06.975Z,50.32
2017-06-03T05:10:47.560Z,50.12
2017-06-03T05:11:28.201Z,50.32
2017-06-03T05:12:09.037Z,50.03
2017-06-03T05:12:49.645Z,49.36
2017-06-03T05:13:30.245Z,49.84
2017-06-03T05:14:10.828Z,49.84
2017-06-03T05:14:51.431Z,49.29
2017-06-03T05:15:32.072Z,49.45
2017-06-03T05:16:12.788Z,49.45
2017-06-03T05:16:53.381Z,49.36
2017-06-03T05:17:33.993Z,49.38
2017-06-03T05:18:20.370Z,49.76
2017-06-03T05:19:16.866Z,49.29
2017-06-03T05:19:57.497Z,49.76
2017-06-03T05:20:40.814Z,49.29
2017-06-03T05:21:24.844Z,49.1
2017-06-03T05:22:14.324Z,49.1
2017-06-03T05:23:03.904Z,48.33
2017-06-03T05:23:48.442Z,47.94
2017-06-03T05:24:44.516Z,48.33
2017-06-03T05:25:39.856Z,48.04
2017-06-03T05:26:25.746Z,48.13
2017-06-03T05:27:09.511Z,47.46
2017-06-03T05:27:55.900Z,47.39
2017-06-03T05:28:43.062Z,47.27
2017-06-03T05:29:24.441Z,47.49
2017-06-03T05:30:08.453Z,47.01
2017-06-03T05:30:49.674Z,47.2
2017-06-03T05:31:33.154Z,46.91
2017-06-03T05:32:13.763Z,46.81
2017-06-03T05:32:54.355Z,46.81
2017-06-03T05:33:35.753Z,46.91
2017-06-03T05:34:16.431Z,46.84
2017-06-03T05:35:00.996Z,46.74
2017-06-03T05:35:49.261Z,45.98
2017-06-03T05:36:38.869Z,45.78
2017-06-03T05:37:26.375Z,45.98
2017-06-03T05:38:07.236Z,45.78
2017-06-03T05:38:55.249Z,45.98
2017-06-03T05:39:37.393Z,47.25
2017-06-03T05:40:18.043Z,45.61
2017-06-03T05:40:58.652Z,44.75
2017-06-03T05:41:44.723Z,44.56
2017-06-03T05:42:34.630Z,45.06
2017-06-03T05:43:23.637Z,45.25
2017-06-03T05:44:07.507Z,45.37
2017-06-03T05:44:49.774Z,43.26
2017-06-03T05:46:24.479Z,44.02
2017-06-03T05:47:49.409Z,44.72
2017-06-03T05:48:30.071Z,42.89
2017-06-03T05:49:10.662Z,41.55
2017-06-03T05:49:51.263Z,41.47
2017-06-03T05:50:31.843Z,41.38
2017-06-03T05:51:12.443Z,40.61
2017-06-03T05:51:53.044Z,40.89
2017-06-03T05:52:33.620Z,40.89
2017-06-03T05:53:14.204Z,40.89
2017-06-03T05:53:55.170Z,41.38
2017-06-03T05:54:36.246Z,40.22
2017-06-03T05:55:16.842Z,40.8
2017-06-03T05:55:57.481Z,40.14
2017-06-03T05:56:38.107Z,40.24
2017-06-03T05:57:18.701Z,40.34
2017-06-03T05:57:59.310Z,40.63
2017-06-03T05:58:39.983Z,40.81
2017-06-03T05:59:20.591Z,41.01
2017-06-03T06:00:01.196Z,41.03
2017-06-03T06:00:41.812Z,39.29
2017-06-03T06:01:22.418Z,39.68
2017-06-03T06:02:03.046Z,39.01
2017-06-03T06:02:43.661Z,37.95
2017-06-03T06:03:24.277Z,38.62
2017-06-03T06:04:04.913Z,38.81
2017-06-03T06:04:45.535Z,38.74
2017-06-03T06:05:26.197Z,38.83
2017-06-03T06:06:06.912Z,38.54
2017-06-03T06:06:47.550Z,38.54
2017-06-03T06:07:28.128Z,37.96
2017-06-03T06:08:08.777Z,37.48
2017-06-03T06:08:49.382Z,37.48
2017-06-03T06:09:30.015Z,37.87
2017-06-03T06:10:10.645Z,37.58
2017-06-03T06:10:51.258Z,37.68
2017-06-03T06:11:31.845Z,37.87
2017-06-03T06:12:12.468Z,37.12
2017-06-03T06:12:53.093Z,37.1
2017-06-03T06:13:34.991Z,37.31
2017-06-03T06:14:15.605Z,36.73
2017-06-03T06:14:56.194Z,36.15
2017-06-03T06:15:36.792Z,38.18
2017-06-03T06:16:17.456Z,37.79
2017-06-03T06:16:58.055Z,36.63
2017-06-03T06:17:38.679Z,36.35
2017-06-03T06:18:19.281Z,36.54
2017-06-03T06:18:59.910Z,36.27
2017-06-03T06:19:40.514Z,36.06
2017-06-03T06:20:21.438Z,36.54
2017-06-03T06:21:02.369Z,36.35
2017-06-03T06:21:43.038Z,37.21
2017-06-03T06:22:23.749Z,37.02
2017-06-03T06:23:07.716Z,37.62
2017-06-03T06:23:50.242Z,36.27
2017-06-03T06:24:31.544Z,35.88
2017-06-03T06:25:14.535Z,36.27
2017-06-03T06:25:55.147Z,35.11
2017-06-03T06:26:35.751Z,36.36
2017-06-03T06:27:16.478Z,35.4
2017-06-03T06:27:57.109Z,35.59
2017-06-03T06:28:37.743Z,36.35
2017-06-03T06:29:18.351Z,35.98
2017-06-03T06:29:58.980Z,36.07
2017-06-03T06:30:42.631Z,36.27
2017-06-03T06:31:25.039Z,36.55
2017-06-03T06:32:06.977Z,35.59
2017-06-03T06:32:51.508Z,36.27
2017-06-03T06:33:32.270Z,35.78
2017-06-03T06:34:14.802Z,36.07
2017-06-03T06:34:56.597Z,36.07
2017-06-03T06:35:41.844Z,35.21
2017-06-03T06:36:28.283Z,36.07
2017-06-03T06:37:10.179Z,36.27
2017-06-03T06:37:50.776Z,36.17
2017-06-03T06:38:31.380Z,37.43
2017-06-03T06:39:11.986Z,36.07
2017-06-03T06:39:52.581Z,35.11
2017-06-03T06:40:33.181Z,35.69
2017-06-03T06:41:13.864Z,36.46
2017-06-03T06:41:54.534Z,36.38
2017-06-03T06:42:35.337Z,35.8
2017-06-03T06:43:15.935Z,35.52
2017-06-03T06:43:56.540Z,35.42
2017-06-03T06:44:37.161Z,34.64
2017-06-03T06:45:17.759Z,34.94
2017-06-03T06:45:58.373Z,35.32
2017-06-03T06:46:38.968Z,35.03
2017-06-03T06:47:19.581Z,35.42
2017-06-03T06:48:00.209Z,34.95
2017-06-03T06:48:40.885Z,34.56
2017-06-03T06:49:21.487Z,34.18
2017-06-03T06:50:02.097Z,33.22
2017-06-03T06:50:42.692Z,33.89
2017-06-03T06:51:23.357Z,34.76
2017-06-03T06:52:04.019Z,35.14
2017-06-03T06:52:44.624Z,35.24
2017-06-03T06:53:25.275Z,35.24
2017-06-03T06:54:05.898Z,36.52
2017-06-03T06:54:46.518Z,34.56
2017-06-03T06:55:27.202Z,33.62
2017-06-03T06:56:07.796Z,33.4
2017-06-03T06:56:48.399Z,34
2017-06-03T06:57:29.051Z,33.8
2017-06-03T06:58:09.662Z,33.91
2017-06-03T06:58:50.277Z,33.91
2017-06-03T06:59:30.885Z,33.7
2017-06-03T07:00:11.482Z,33.91
2017-06-03T07:00:52.079Z,33.91
2017-06-03T07:01:32.675Z,34.38
2017-06-03T07:02:13.487Z,34.66
2017-06-03T07:02:54.233Z,34.68
2017-06-03T07:03:34.835Z,34.48
2017-06-03T07:04:15.439Z,34.29
2017-06-03T07:04:56.103Z,34.39
2017-06-03T07:05:36.696Z,34.29
2017-06-03T07:06:17.306Z,33.72
2017-06-03T07:06:57.912Z,33.33
2017-06-03T07:07:38.527Z,32.36
2017-06-03T07:08:19.148Z,32.75
2017-06-03T07:08:59.769Z,33.23
2017-06-03T07:09:40.691Z,33.14
2017-06-03T07:10:21.393Z,32.92
2017-06-03T07:11:02.059Z,33.22
2017-06-03T07:11:42.672Z,33.02
2017-06-03T07:12:23.269Z,33.12
2017-06-03T07:13:03.872Z,33.6
2017-06-03T07:13:44.538Z,33.98
2017-06-03T07:14:25.191Z,33.7
2017-06-03T07:15:05.791Z,34.06
2017-06-03T07:15:46.387Z,34.26
2017-06-03T07:16:26.977Z,34.94
2017-06-03T07:17:07.590Z,34.84
2017-06-03T07:17:48.201Z,34.64
2017-06-03T07:18:28.904Z,34.84
2017-06-03T07:19:09.552Z,34.64
2017-06-03T07:19:50.315Z,33.97
2017-06-03T07:20:30.918Z,34.63
2017-06-03T07:21:11.644Z,34.92
2017-06-03T07:21:52.235Z,35.21
2017-06-03T07:22:32.828Z,35.4
2017-06-03T07:23:13.469Z,34.82
2017-06-03T07:23:54.084Z,34.92
2017-06-03T07:24:34.670Z,35.3
2017-06-03T07:25:15.273Z,36.07
2017-06-03T07:25:55.923Z,36.17
2017-06-03T07:26:36.517Z,35.88
2017-06-03T07:27:17.149Z,35.3
2017-06-03T07:27:57.753Z,35.11
2017-06-03T07:28:38.358Z,36.36
2017-06-03T07:29:18.956Z,35.86
2017-06-03T07:29:59.558Z,36.15
2017-06-03T07:30:40.210Z,36.44
2017-06-03T07:31:20.801Z,35.96
2017-06-03T07:32:01.408Z,36.06
2017-06-03T07:32:42.014Z,36.06
2017-06-03T07:33:22.601Z,37.21
2017-06-03T07:34:03.348Z,36.25
2017-06-03T07:34:44.140Z,36.25
2017-06-03T07:35:24.754Z,36.54
2017-06-03T07:36:05.355Z,36.25
2017-06-03T07:36:45.956Z,36.44
2017-06-03T07:37:26.567Z,37.21
2017-06-03T07:38:07.216Z,36.25
2017-06-03T07:38:47.870Z,36.25
2017-06-03T07:39:28.488Z,36.54
2017-06-03T07:40:09.197Z,37.21
2017-06-03T07:40:49.867Z,37.12
2017-06-03T07:41:30.460Z,37.29
2017-06-03T07:42:11.059Z,37.19
2017-06-03T07:42:51.646Z,37.68
2017-06-03T07:43:32.270Z,38.66
2017-06-03T07:44:12.864Z,38.28
2017-06-03T07:44:53.468Z,37.98
2017-06-03T07:45:34.084Z,37.6
2017-06-03T07:46:14.748Z,38.46
2017-06-03T07:46:55.373Z,38.01
2017-06-03T07:47:35.960Z,36.27
2017-06-03T07:48:16.571Z,36.55
2017-06-03T07:48:57.209Z,35.88
2017-06-03T07:49:37.841Z,35.59
2017-06-03T07:50:18.445Z,36.27
2017-06-03T07:50:59.034Z,35.59
2017-06-03T07:51:39.632Z,36.27
2017-06-03T07:52:20.223Z,36.17
2017-06-03T07:53:00.825Z,36.46
2017-06-03T07:53:41.416Z,37.52
2017-06-03T07:54:22.025Z,38.1
2017-06-03T07:55:02.609Z,37.89
2017-06-03T07:55:43.224Z,36.94
2017-06-03T07:56:23.836Z,37.04
2017-06-03T07:57:04.523Z,37.41
2017-06-03T07:57:45.116Z,37.89
2017-06-03T07:58:25.731Z,37.6
2017-06-03T07:59:06.322Z,37.7
2017-06-03T07:59:46.910Z,37.7
2017-06-03T08:00:27.506Z,37.79
2017-06-03T08:01:08.111Z,37.6
2017-06-03T08:01:48.702Z,36.65
2017-06-03T08:02:29.302Z,37.21
2017-06-03T08:03:09.907Z,37.31
2017-06-03T08:03:50.511Z,37.21
2017-06-03T08:04:31.141Z,37.12
2017-06-03T08:05:11.747Z,37.41
2017-06-03T08:05:52.354Z,37.21
2017-06-03T08:06:32.967Z,37.12
2017-06-03T08:07:13.593Z,36.83
2017-06-03T08:07:54.230Z,36.63
2017-06-03T08:08:34.886Z,36.54
2017-06-03T08:09:15.529Z,37.21
2017-06-03T08:09:56.108Z,36.73
2017-06-03T08:10:36.715Z,36.06
2017-06-03T08:11:17.311Z,36.25
2017-06-03T08:11:57.913Z,36.75
2017-06-03T08:12:38.537Z,35.96
2017-06-03T08:13:19.144Z,36.15
2017-06-03T08:13:59.739Z,35.38
2017-06-03T08:14:40.338Z,35.96
2017-06-03T08:15:28.559Z,35.77
2017-06-03T08:16:09.153Z,35.96
2017-06-03T08:16:49.812Z,35.48
2017-06-03T08:17:30.397Z,34.9
2017-06-03T08:18:11.001Z,35.28
2017-06-03T08:18:51.590Z,35.86
2017-06-03T08:19:32.203Z,36.15
2017-06-03T08:20:12.814Z,36.54
2017-06-03T08:20:53.415Z,36.73
2017-06-03T08:21:34.037Z,37.5
2017-06-03T08:22:14.647Z,37.21
2017-06-03T08:22:55.266Z,36.06
2017-06-03T08:23:35.877Z,36.63
2017-06-03T08:24:16.503Z,37.12
2017-06-03T08:24:57.122Z,36.25
2017-06-03T08:25:37.734Z,36.15
2017-06-03T08:26:18.325Z,35.96
2017-06-03T08:26:59.021Z,35.96
2017-06-03T08:27:39.614Z,35.46
2017-06-03T08:28:20.263Z,35.28
2017-06-03T08:29:00.849Z,35.58
2017-06-03T08:29:41.462Z,36.35
2017-06-03T08:30:22.062Z,36.35
2017-06-03T08:31:02.665Z,36.25
2017-06-03T08:31:43.282Z,36.83
2017-06-03T08:32:23.896Z,36.54
2017-06-03T08:33:04.516Z,36.44
2017-06-03T08:33:45.123Z,36.25
2017-06-03T08:34:25.704Z,35.86
2017-06-03T08:35:06.310Z,36.54
2017-06-03T08:35:46.910Z,36.15
2017-06-03T08:36:27.503Z,36.44
2017-06-03T08:37:08.083Z,36.83
2017-06-03T08:37:48.667Z,36.25
2017-06-03T08:38:29.262Z,36.06
2017-06-03T08:39:09.854Z,36.25
2017-06-03T08:39:50.459Z,36.63
2017-06-03T08:40:31.078Z,37.21
2017-06-03T08:41:11.684Z,37.31
2017-06-03T08:41:52.262Z,36.85
2017-06-03T08:42:32.856Z,37.21
2017-06-03T08:43:13.452Z,36.94
2017-06-03T08:43:54.061Z,36.17
2017-06-03T08:44:34.668Z,36.17
2017-06-03T08:45:15.273Z,35.78
2017-06-03T08:45:55.894Z,35.69
2017-06-03T08:46:36.489Z,35.21
2017-06-03T08:47:17.081Z,35.69
2017-06-03T08:47:57.663Z,35.48
2017-06-03T08:48:38.255Z,35.78
2017-06-03T08:49:18.844Z,35.78
2017-06-03T08:49:59.447Z,35.5